• Join FlightAware (Why Join?)
  • Login
  • US Flag 
03:28PM EDT


 

Airport Tracker/Info


-or-


 

Live Flight TrackerFlight Track Log ✈ N271AF ✈ 25-Jun-2013 ✈ KHAO - KPMH

Flight Track Log - Related Links

Times and Time Zones

All times are in EDT time to prevent confusion due to time zone crossing. See the N271AF flight status page for this flight to view local times or setup timezone preferences in your user account.

Time Position Orientation Groundspeed Altitude Reporting Facility
EDT Latitude Longitude Course Direction KTS MPH feet Rate Location/Type
02:18PM 39.3833 -84.5667 218° Southwest 92 106 1,700  Level Cincinnati TRACON
02:19PM 39.3667 -84.5833 218° Southwest 95 109 2,000 420 Climbing Cincinnati TRACON
02:20PM 39.3500 -84.5500 123° Southeast 111 128 2,500 420 Climbing Cincinnati TRACON
02:21PM 39.3500 -84.5167 90° East 113 130 2,900 360 Climbing Cincinnati TRACON
02:22PM 39.3167 -84.4833 142° Southeast 117 135 3,300 420 Climbing Cincinnati TRACON
02:23PM 39.3000 -84.4667 142° Southeast 105 121 3,700 360 Climbing Cincinnati TRACON
02:24PM 39.2833 -84.4500 142° Southeast 113 130 4,000 180 Climbing Cincinnati TRACON
02:24PM 39.2675 -84.4372 148° Southeast 107 123 4,000  Level Indianapolis Center
02:25PM 39.2331 -84.4064 145° Southeast 117 135 4,000  Level Indianapolis Center
02:26PM 39.2033 -84.3783 144° Southeast 124 143 4,100 240 Climbing Indianapolis Center
02:28PM 39.1753 -84.3514 143° Southeast 126 145 4,500 360 Climbing Indianapolis Center
02:29PM 39.1483 -84.3256 143° Southeast 124 143 4,900 240 Climbing Indianapolis Center
02:30PM 39.1208 -84.2994 144° Southeast 122 140 5,000  Climbing Indianapolis Center
02:31PM 39.0906 -84.2736 146° Southeast 124 143 5,000  Level Indianapolis Center
02:32PM 39.0608 -84.2453 143° Southeast 128 147 5,000  Level Indianapolis Center
02:33PM 39.0294 -84.2144 143° Southeast 133 153 5,000  Level Indianapolis Center
02:34PM 38.9917 -84.1808 145° Southeast 138 159 5,000  Level Indianapolis Center
02:35PM 38.9606 -84.1539 146° Southeast 136 157 5,000  Level Indianapolis Center
02:36PM 38.9308 -84.1272 145° Southeast 130 150 5,000  Level Indianapolis Center
02:37PM 38.8986 -84.1019 149° Southeast 132 152 5,000  Level Indianapolis Center
02:38PM 38.8761 -84.0614 125° Southeast 138 159 5,000  Level Indianapolis Center
02:39PM 38.8678 -84.0117 102° East 140 161 5,000  Level Indianapolis Center
02:40PM 38.8578 -83.9592 104° East 147 169 5,000  Level Indianapolis Center
02:41PM 38.8564 -83.9008 92° East 147 169 5,000  Level Indianapolis Center
02:42PM 38.8567 -83.8475 90° East 147 169 5,000  Level Indianapolis Center
02:43PM 38.8578 -83.7933 88° East 146 168 5,000  Level Indianapolis Center
02:44PM 38.8575 -83.7422 90° East 143 165 5,000  Level Indianapolis Center
02:45PM 38.8558 -83.6897 92° East 145 167 5,000  Level Indianapolis Center
02:46PM 38.8547 -83.6383 92° East 145 167 5,000  Level Indianapolis Center
02:47PM 38.8531 -83.5861 92° East 146 168 5,000  Level Indianapolis Center
02:48PM 38.8528 -83.5339 90° East 146 168 5,000  Level Indianapolis Center
02:49PM 38.8519 -83.4717 91° East 148 170 5,000  Level Indianapolis Center
02:50PM 38.8508 -83.4200 92° East 144 166 5,000 -60 Level Indianapolis Center
02:51PM 38.8503 -83.3664 91° East 149 171 4,900 -180 Descending Indianapolis Center
02:52PM 38.8494 -83.3150 91° East 144 166 4,700 -240 Descending Indianapolis Center
02:53PM 38.8483 -83.2589 91° East 152 175 4,500 -240 Descending Indianapolis Center
02:54PM 38.8475 -83.2044 91° East 154 177 4,300 -300 Descending Indianapolis Center
02:55PM 38.8458 -83.1472 92° East 144 166 4,000 -180 Descending Indianapolis Center
02:56PM 38.8461 -83.0942 90° East 146 168 4,000  Level Indianapolis Center
02:57PM 38.8433 -83.0381 94° East 142 163 4,000  Level Indianapolis Center